KAZE

Hazlehurst Airport

Hazlehurst, Georgia, USA
METAR KAZE 201455Z AUTO 15006KT 10SM SCT006 SCT020 21/21 A3041 RMK AO2 T02110207
Observed Flight Rules
Feb-20 @ 14:55 UTC (3 hours ago) Visual Flight Rules
Wind Visibility Clouds
150° at 6 knots 10 miles
  • Scattered at 600' AGL
  • Scattered at 2,000' AGL
Temperatures Readings
Current 21°C / 70°F
Dewpoint 21°C / 70°F
Humidity 100%
Altimeter 30.41" Hg
Pressure 1030 hPa
Elevation 78
METAR KAZE 201455Z AUTO 15006KT 10SM SCT006 SCT020 21/21 A3041 RMK AO2 T02110207
Observed Flight Rules
Feb-20 @ 14:55 UTC
(3 hours ago)
VFR
Wind Visibility
150° at 6 knots 10 miles
Clouds
  • Scattered at 600' AGL
  • Scattered at 2,000' AGL
Temperature Dewpoint
21°C / 70°F 21°C / 70°F
Humidity Altimeter Pressure
100% 30.41" Hg 1030 hPa